createdAt,value
2016-10-22T00:01:00.027Z,997.54
2016-10-22T00:02:10.066Z,997.5
2016-10-22T00:03:20.390Z,997.51
2016-10-22T00:04:30.405Z,997.52
2016-10-22T00:05:40.724Z,997.52
2016-10-22T00:06:51.011Z,997.5
2016-10-22T00:08:00.924Z,997.55
2016-10-22T00:09:11.216Z,997.57
2016-10-22T00:10:21.193Z,997.54
2016-10-22T00:11:31.184Z,997.56
2016-10-22T00:12:41.181Z,997.55
2016-10-22T00:13:51.462Z,997.57
2016-10-22T00:15:01.465Z,997.55
2016-10-22T00:16:11.479Z,997.55
2016-10-22T00:17:21.779Z,997.51
2016-10-22T00:18:32.124Z,997.52
2016-10-22T00:19:42.438Z,997.47
2016-10-22T00:20:52.411Z,997.51
2016-10-22T00:22:02.713Z,997.51
2016-10-22T00:23:13.024Z,997.55
2016-10-22T00:24:23.340Z,997.54
2016-10-22T00:25:33.332Z,997.54
2016-10-22T00:26:43.654Z,997.55
2016-10-22T00:27:53.668Z,997.54
2016-10-22T00:29:03.963Z,997.56
2016-10-22T00:30:14.263Z,997.57
2016-10-22T00:31:24.552Z,997.53
2016-10-22T00:32:34.842Z,997.58
2016-10-22T00:33:45.175Z,997.59
2016-10-22T00:34:55.457Z,997.59
2016-10-22T00:36:05.438Z,997.63
2016-10-22T00:37:15.723Z,997.61
2016-10-22T00:38:25.685Z,997.6
2016-10-22T00:39:35.966Z,997.61
2016-10-22T00:40:46.245Z,997.64
2016-10-22T00:41:56.516Z,997.65
2016-10-22T00:43:06.811Z,997.67
2016-10-22T00:44:16.814Z,997.63
2016-10-22T00:45:27.102Z,997.65
2016-10-22T00:46:37.392Z,997.67
2016-10-22T00:47:47.668Z,997.67
2016-10-22T00:48:57.949Z,997.66
2016-10-22T00:50:08.231Z,997.65
2016-10-22T00:51:18.204Z,997.67
2016-10-22T00:52:27.877Z,997.69
2016-10-22T00:53:38.200Z,997.7
2016-10-22T00:54:48.474Z,997.69
2016-10-22T00:55:58.146Z,997.72
2016-10-22T00:57:08.117Z,997.67
2016-10-22T00:58:18.399Z,997.7
2016-10-22T00:59:28.725Z,997.7
2016-10-22T01:00:39.052Z,997.71
2016-10-22T01:01:49.339Z,997.73
2016-10-22T01:02:59.622Z,997.76
2016-10-22T01:04:09.611Z,997.76
2016-10-22T01:05:19.879Z,997.75
2016-10-22T01:06:30.156Z,997.79
2016-10-22T01:07:40.122Z,997.78
2016-10-22T01:08:50.131Z,997.79
2016-10-22T01:10:00.406Z,997.84
2016-10-22T01:11:10.728Z,997.79
2016-10-22T01:12:20.107Z,997.8
2016-10-22T01:13:29.776Z,997.81
2016-10-22T01:14:39.446Z,997.81
2016-10-22T01:15:49.110Z,997.78
2016-10-22T01:16:59.395Z,997.78
2016-10-22T01:18:09.669Z,997.78
2016-10-22T01:19:19.989Z,997.78
2016-10-22T01:20:30.275Z,997.81
2016-10-22T01:21:40.252Z,997.77
2016-10-22T01:22:50.223Z,997.82
2016-10-22T01:24:00.506Z,997.81
2016-10-22T01:25:10.784Z,997.8
2016-10-22T01:26:20.753Z,997.79
2016-10-22T01:27:30.721Z,997.81
2016-10-22T01:28:40.990Z,997.78
2016-10-22T01:29:51.262Z,997.78
2016-10-22T01:31:01.549Z,997.77
2016-10-22T01:32:11.842Z,997.74
2016-10-22T01:33:22.143Z,997.75
2016-10-22T01:34:32.456Z,997.73
2016-10-22T01:35:42.744Z,997.74
2016-10-22T01:36:53.025Z,997.73
2016-10-22T01:38:02.382Z,997.72
2016-10-22T01:39:12.671Z,997.75
2016-10-22T01:40:22.659Z,997.76
2016-10-22T01:41:32.934Z,997.71
2016-10-22T01:42:43.211Z,997.72
2016-10-22T01:43:53.193Z,997.71
2016-10-22T01:45:03.465Z,997.72
2016-10-22T01:46:13.762Z,997.72
2016-10-22T01:47:24.042Z,997.72
2016-10-22T01:48:34.364Z,997.77
2016-10-22T01:49:44.331Z,997.69
2016-10-22T01:50:54.307Z,997.71
2016-10-22T01:52:04.620Z,997.73
2016-10-22T01:53:14.903Z,997.73
2016-10-22T01:54:25.187Z,997.73
2016-10-22T01:55:35.144Z,997.72
2016-10-22T01:56:45.421Z,997.72
2016-10-22T01:57:55.690Z,997.72
2016-10-22T01:59:05.978Z,997.75
2016-10-22T02:00:16.266Z,997.73
2016-10-22T02:01:26.568Z,997.71
2016-10-22T02:02:36.889Z,997.69
2016-10-22T02:03:47.186Z,997.67
2016-10-22T02:04:57.473Z,997.71
2016-10-22T02:06:07.760Z,997.68
2016-10-22T02:07:17.747Z,997.72
2016-10-22T02:08:28.034Z,997.71
2016-10-22T02:09:38.304Z,997.69
2016-10-22T02:10:47.980Z,997.7
2016-10-22T02:11:58.272Z,997.7
2016-10-22T02:13:08.564Z,997.68
2016-10-22T02:14:18.846Z,997.74
2016-10-22T02:15:29.127Z,997.72
2016-10-22T02:16:39.105Z,997.7
2016-10-22T02:17:49.410Z,997.73
2016-10-22T02:18:59.383Z,997.67
2016-10-22T02:20:09.691Z,997.69
2016-10-22T02:21:19.356Z,997.71
2016-10-22T02:22:29.342Z,997.63
2016-10-22T02:23:39.336Z,997.67
2016-10-22T02:24:49.653Z,997.65
2016-10-22T02:25:59.937Z,997.64
2016-10-22T02:27:10.221Z,997.63
2016-10-22T02:28:20.499Z,997.66
2016-10-22T02:29:30.477Z,997.63
2016-10-22T02:30:40.819Z,997.59
2016-10-22T02:31:50.787Z,997.61
2016-10-22T02:33:01.122Z,997.59
2016-10-22T02:34:11.403Z,997.58
2016-10-22T02:35:21.377Z,997.6
2016-10-22T02:36:31.385Z,997.58
2016-10-22T02:37:41.052Z,997.58
2016-10-22T02:38:51.335Z,997.55
2016-10-22T02:40:01.613Z,997.54
2016-10-22T02:41:11.888Z,997.56
2016-10-22T02:42:22.200Z,997.61
2016-10-22T02:43:32.191Z,997.54
2016-10-22T02:44:42.478Z,997.54
2016-10-22T02:45:52.450Z,997.5
2016-10-22T02:47:02.732Z,997.51
2016-10-22T02:48:13.013Z,997.5
2016-10-22T02:49:22.975Z,997.48
2016-10-22T02:50:33.251Z,997.49
2016-10-22T02:51:43.544Z,997.47
2016-10-22T02:52:53.822Z,997.46
2016-10-22T02:54:03.792Z,997.46
2016-10-22T02:55:13.747Z,997.48
2016-10-22T02:56:23.742Z,997.48
2016-10-22T02:57:33.100Z,997.5
2016-10-22T02:58:43.393Z,997.49
2016-10-22T02:59:53.352Z,997.49
2016-10-22T03:01:03.630Z,997.54
2016-10-22T03:33:28.717Z,997.64
2016-10-22T03:34:38.994Z,997.62
2016-10-22T03:35:48.960Z,997.66
2016-10-22T03:36:59.227Z,997.66
2016-10-22T03:38:09.213Z,997.63
2016-10-22T03:39:19.181Z,997.64
2016-10-22T03:40:29.146Z,997.66
2016-10-22T03:41:39.151Z,997.63
2016-10-22T03:42:49.440Z,997.64
2016-10-22T03:43:59.721Z,997.64
2016-10-22T03:45:09.990Z,997.66
2016-10-22T03:46:20.267Z,997.66
2016-10-22T03:47:30.561Z,997.68
2016-10-22T03:48:40.835Z,997.66
2016-10-22T03:49:50.797Z,997.66
2016-10-22T03:51:01.068Z,997.68
2016-10-22T03:52:11.350Z,997.73
2016-10-22T03:53:21.328Z,997.72
2016-10-22T03:54:31.613Z,997.71
2016-10-22T03:55:41.889Z,997.74
2016-10-22T03:56:52.161Z,997.78
2016-10-22T03:58:01.808Z,997.78
2016-10-22T03:59:11.818Z,997.82
2016-10-22T04:00:21.790Z,997.81
2016-10-22T04:01:31.764Z,997.8
2016-10-22T04:02:42.040Z,997.79
2016-10-22T04:03:52.315Z,997.78
2016-10-22T04:05:02.593Z,997.75
2016-10-22T04:06:12.874Z,997.78
2016-10-22T04:07:22.846Z,997.78
2016-10-22T04:08:33.140Z,997.75
2016-10-22T04:09:43.153Z,997.71
2016-10-22T04:10:53.466Z,997.72
2016-10-22T04:12:03.439Z,997.66
2016-10-22T04:13:13.733Z,997.66
2016-10-22T04:14:23.689Z,997.64
2016-10-22T04:15:33.978Z,997.65
2016-10-22T04:16:44.289Z,997.59
2016-10-22T04:17:54.280Z,997.61
2016-10-22T04:19:04.577Z,997.58
2016-10-22T04:20:14.863Z,997.63
2016-10-22T04:21:24.856Z,997.62
2016-10-22T04:22:34.834Z,997.61
2016-10-22T04:23:45.124Z,997.64
2016-10-22T04:24:55.410Z,997.68
2016-10-22T04:26:05.684Z,997.69
2016-10-22T04:27:15.658Z,997.67
2016-10-22T04:28:25.933Z,997.71
2016-10-22T04:29:35.592Z,997.67
2016-10-22T04:30:45.872Z,997.67
2016-10-22T04:31:56.151Z,997.73
2016-10-22T04:33:06.431Z,997.73
2016-10-22T04:34:16.410Z,997.74
2016-10-22T04:35:26.698Z,997.77
2016-10-22T04:36:36.680Z,997.77
2016-10-22T04:37:46.651Z,997.78
2016-10-22T04:38:56.623Z,997.76
2016-10-22T04:40:06.915Z,997.75
2016-10-22T04:41:17.182Z,997.73
2016-10-22T04:42:26.539Z,997.77
2016-10-22T04:43:36.531Z,997.75
2016-10-22T04:44:46.498Z,997.75
2016-10-22T04:45:56.785Z,997.74
2016-10-22T04:47:07.067Z,997.75
2016-10-22T04:48:17.054Z,997.78
2016-10-22T04:49:27.030Z,997.77
2016-10-22T04:50:37.321Z,997.76
2016-10-22T04:51:47.603Z,997.78
2016-10-22T04:52:57.900Z,997.78
2016-10-22T04:54:08.174Z,997.8
2016-10-22T04:55:18.463Z,997.79
2016-10-22T04:56:28.795Z,997.78
2016-10-22T04:57:38.762Z,997.77
2016-10-22T04:58:49.048Z,997.79
2016-10-22T04:59:59.336Z,997.77
2016-10-22T05:01:09.610Z,997.76
2016-10-22T05:02:19.585Z,997.78
2016-10-22T05:03:29.871Z,997.76
2016-10-22T05:04:40.148Z,997.78
2016-10-22T05:05:50.419Z,997.8
2016-10-22T05:07:00.708Z,997.79
2016-10-22T05:08:10.984Z,997.8
2016-10-22T05:09:20.959Z,997.79
2016-10-22T05:10:31.257Z,997.83
2016-10-22T05:11:41.258Z,997.82
2016-10-22T05:12:51.225Z,997.83
2016-10-22T05:14:01.511Z,997.84
2016-10-22T05:15:11.485Z,997.86
2016-10-22T05:16:21.771Z,997.84
2016-10-22T05:17:32.094Z,997.92
2016-10-22T05:18:42.068Z,997.92
2016-10-22T05:19:52.039Z,997.93
2016-10-22T05:21:01.708Z,997.97
2016-10-22T05:22:11.379Z,997.98
2016-10-22T05:23:21.652Z,998.03
2016-10-22T05:24:31.967Z,998.04
2016-10-22T05:25:42.268Z,998.03
2016-10-22T05:26:52.235Z,998.08
2016-10-22T05:28:02.209Z,998.06
2016-10-22T05:29:12.180Z,998.07
2016-10-22T05:30:22.157Z,998.07
2016-10-22T05:31:32.432Z,998.08
2016-10-22T05:32:42.754Z,998.1
2016-10-22T05:33:52.422Z,998.11
2016-10-22T05:35:02.403Z,998.12
2016-10-22T05:36:12.691Z,998.18
2016-10-22T05:37:22.983Z,998.23
2016-10-22T05:38:33.268Z,998.2
2016-10-22T05:39:43.232Z,998.2
2016-10-22T05:40:53.217Z,998.2
2016-10-22T05:42:03.505Z,998.2
2016-10-22T05:43:13.488Z,998.24
2016-10-22T05:44:23.799Z,998.23
2016-10-22T05:45:33.794Z,998.2
2016-10-22T05:46:43.475Z,998.24
2016-10-22T05:47:53.462Z,998.24
2016-10-22T05:49:03.743Z,998.26
2016-10-22T05:50:14.055Z,998.27
2016-10-22T05:51:24.022Z,998.27
2016-10-22T05:52:33.996Z,998.29
2016-10-22T05:53:44.287Z,998.34
2016-10-22T05:54:54.561Z,998.31
2016-10-22T05:56:04.857Z,998.34
2016-10-22T05:57:15.141Z,998.41
2016-10-22T05:58:25.427Z,998.4
2016-10-22T05:59:35.734Z,998.38
2016-10-22T06:00:46.007Z,998.45
2016-10-22T06:01:56.289Z,998.44
2016-10-22T06:03:06.591Z,998.41
2016-10-22T06:04:16.881Z,998.45
2016-10-22T06:05:27.152Z,998.48
2016-10-22T06:06:37.439Z,998.47
2016-10-22T06:07:47.407Z,998.5
2016-10-22T06:08:57.696Z,998.47
2016-10-22T06:10:07.676Z,998.45
2016-10-22T06:11:17.971Z,998.5
2016-10-22T06:12:27.648Z,998.53
2016-10-22T06:13:37.620Z,998.51
2016-10-22T06:14:47.945Z,998.48
2016-10-22T06:15:58.232Z,998.48
2016-10-22T06:17:08.533Z,998.46
2016-10-22T06:18:18.812Z,998.47
2016-10-22T06:19:28.480Z,998.51
2016-10-22T06:20:38.150Z,998.51
2016-10-22T06:21:48.133Z,998.52
2016-10-22T06:22:58.428Z,998.53
2016-10-22T06:24:08.726Z,998.52
2016-10-22T06:25:19.033Z,998.55
2016-10-22T06:26:29.335Z,998.55
2016-10-22T06:27:39.627Z,998.57
2016-10-22T06:28:49.947Z,998.54
2016-10-22T06:30:00.243Z,998.54
2016-10-22T06:31:10.220Z,998.54
2016-10-22T06:32:20.509Z,998.54
2016-10-22T06:33:30.794Z,998.54
2016-10-22T06:34:41.083Z,998.6
2016-10-22T06:35:51.068Z,998.58
2016-10-22T06:37:01.363Z,998.58
2016-10-22T06:38:11.635Z,998.61
2016-10-22T06:39:21.917Z,998.59
2016-10-22T06:40:32.445Z,998.57
2016-10-22T06:41:42.722Z,998.61
2016-10-22T06:42:53.012Z,998.61
2016-10-22T06:44:03.303Z,998.61
2016-10-22T06:45:13.587Z,998.64
2016-10-22T06:46:23.887Z,998.62
2016-10-22T06:47:34.161Z,998.61
2016-10-22T06:48:44.501Z,998.58
2016-10-22T06:49:54.807Z,998.59
2016-10-22T06:51:04.794Z,998.63
2016-10-22T06:52:15.101Z,998.61
2016-10-22T06:53:25.402Z,998.63
2016-10-22T06:54:35.715Z,998.63
2016-10-22T06:55:46.016Z,998.65
2016-10-22T06:56:55.988Z,998.67
2016-10-22T06:58:06.258Z,998.67
2016-10-22T06:59:16.546Z,998.67
2016-10-22T07:00:26.852Z,998.66
2016-10-22T07:01:37.129Z,998.64
2016-10-22T07:02:47.425Z,998.67
2016-10-22T07:03:57.394Z,998.68
2016-10-22T07:05:07.069Z,998.67
2016-10-22T07:06:17.353Z,998.71
2016-10-22T07:07:27.652Z,998.71
2016-10-22T07:08:37.925Z,998.69
2016-10-22T07:09:48.208Z,998.69
2016-10-22T07:10:58.495Z,998.72
2016-10-22T07:12:08.470Z,998.73
2016-10-22T07:13:18.751Z,998.69
2016-10-22T07:14:28.732Z,998.74
2016-10-22T07:15:39.022Z,998.72
2016-10-22T07:16:49.336Z,998.72
2016-10-22T07:17:59.629Z,998.76
2016-10-22T07:19:09.916Z,998.72
2016-10-22T07:20:19.892Z,998.74
2016-10-22T07:21:29.883Z,998.75
2016-10-22T07:22:39.880Z,998.74
2016-10-22T07:23:50.173Z,998.72
2016-10-22T07:25:00.172Z,998.73
2016-10-22T07:26:10.460Z,998.72
2016-10-22T07:27:20.753Z,998.7
2016-10-22T07:28:31.038Z,998.73
2016-10-22T07:29:41.008Z,998.73
2016-10-22T07:30:50.407Z,998.74
2016-10-22T07:32:00.390Z,998.75
2016-10-22T07:33:10.719Z,998.75
2016-10-22T07:34:20.692Z,998.75
2016-10-22T07:35:30.656Z,998.76
2016-10-22T07:36:40.929Z,998.75
2016-10-22T07:37:51.215Z,998.75
2016-10-22T07:39:01.197Z,998.76
2016-10-22T07:40:10.864Z,998.7
2016-10-22T07:41:20.531Z,998.72
2016-10-22T07:42:30.818Z,998.71
2016-10-22T07:43:41.108Z,998.7
2016-10-22T07:44:51.076Z,998.74
2016-10-22T07:46:01.343Z,998.73
2016-10-22T07:47:11.658Z,998.73
2016-10-22T07:48:21.955Z,998.68
2016-10-22T07:49:32.291Z,998.67
2016-10-22T07:50:42.574Z,998.67
2016-10-22T07:51:52.856Z,998.62
2016-10-22T07:53:02.829Z,998.65
2016-10-22T07:54:13.099Z,998.62
2016-10-22T07:55:23.375Z,998.66
2016-10-22T07:56:33.339Z,998.65
2016-10-22T07:57:43.621Z,998.64
2016-10-22T07:58:53.897Z,998.62
2016-10-22T08:00:04.193Z,998.57
2016-10-22T08:01:14.520Z,998.59
2016-10-22T08:02:24.858Z,998.62
2016-10-22T08:03:34.219Z,998.6
2016-10-22T08:04:44.514Z,998.6
2016-10-22T08:05:54.491Z,998.55
2016-10-22T08:07:04.468Z,998.6
2016-10-22T08:08:14.765Z,998.53
2016-10-22T08:09:25.057Z,998.56
2016-10-22T08:10:35.047Z,998.53
2016-10-22T08:11:45.329Z,998.54
2016-10-22T08:12:55.601Z,998.55
2016-10-22T08:14:05.583Z,998.54
2016-10-22T08:15:15.555Z,998.57
2016-10-22T08:16:25.884Z,998.57
2016-10-22T08:17:35.849Z,998.58
2016-10-22T08:18:46.126Z,998.54
2016-10-22T08:19:56.421Z,998.51
2016-10-22T08:21:06.708Z,998.48
2016-10-22T08:22:17.000Z,998.49
2016-10-22T08:23:27.289Z,998.5
2016-10-22T08:24:37.583Z,998.5
2016-10-22T08:25:47.564Z,998.55
2016-10-22T08:26:57.843Z,998.54
2016-10-22T08:28:08.139Z,998.55
2016-10-22T08:29:18.415Z,998.57
2016-10-22T08:30:28.696Z,998.52
2016-10-22T08:31:39.014Z,998.55
2016-10-22T08:32:49.296Z,998.52
2016-10-22T08:33:59.267Z,998.49
2016-10-22T08:35:09.550Z,998.47
2016-10-22T08:36:19.541Z,998.44
2016-10-22T08:37:29.859Z,998.48
2016-10-22T08:38:39.854Z,998.48
2016-10-22T08:39:50.155Z,998.48
2016-10-22T08:41:00.120Z,998.47
2016-10-22T08:42:10.100Z,998.49
2016-10-22T08:43:20.395Z,998.53
2016-10-22T08:44:30.377Z,998.51
2016-10-22T08:45:40.660Z,998.53
2016-10-22T08:46:50.940Z,998.53
2016-10-22T08:48:01.219Z,998.56
2016-10-22T08:49:11.538Z,998.61
2016-10-22T08:50:21.512Z,998.61
2016-10-22T08:51:31.798Z,998.58
2016-10-22T08:52:42.088Z,998.59
2016-10-22T08:53:52.382Z,998.55
2016-10-22T08:55:02.666Z,998.56
2016-10-22T08:56:12.959Z,998.54
2016-10-22T08:57:22.926Z,998.55
2016-10-22T08:58:32.915Z,998.51
2016-10-22T08:59:43.203Z,998.53
2016-10-22T09:00:53.537Z,998.53
2016-10-22T09:02:03.824Z,998.54
2016-10-22T09:03:13.820Z,998.52
2016-10-22T09:04:24.111Z,998.57
2016-10-22T09:05:34.102Z,998.59
2016-10-22T09:06:44.385Z,998.54
2016-10-22T09:07:54.761Z,998.58
2016-10-22T09:09:05.420Z,998.53
2016-10-22T09:10:21.702Z,998.55
2016-10-22T09:11:39.847Z,998.52
2016-10-22T09:12:53.644Z,998.51
2016-10-22T09:14:03.965Z,998.52
2016-10-22T09:15:13.996Z,998.53
2016-10-22T09:16:24.283Z,998.52
2016-10-22T09:17:34.297Z,998.53
2016-10-22T09:18:44.890Z,998.51
2016-10-22T09:19:55.195Z,998.53
2016-10-22T09:21:05.485Z,998.54
2016-10-22T09:22:15.783Z,998.59
2016-10-22T09:23:25.764Z,998.62
2016-10-22T09:24:36.082Z,998.62
2016-10-22T09:25:46.389Z,998.63
2016-10-22T09:26:56.724Z,998.67
2016-10-22T09:28:07.034Z,998.62
2016-10-22T09:29:17.379Z,998.58
2016-10-22T09:30:27.363Z,998.54
2016-10-22T09:31:37.380Z,998.59
2016-10-22T09:32:47.397Z,998.55
2016-10-22T09:33:57.693Z,998.58
2016-10-22T09:35:08.038Z,998.61
2016-10-22T09:36:17.750Z,998.6
2016-10-22T09:37:28.035Z,998.6
2016-10-22T09:38:38.002Z,998.57
2016-10-22T09:39:47.994Z,998.56
2016-10-22T09:40:58.535Z,998.55
2016-10-22T09:42:08.816Z,998.46
2016-10-22T09:43:19.029Z,998.46
2016-10-22T09:44:29.317Z,998.42
2016-10-22T09:45:39.618Z,998.45
2016-10-22T09:46:49.960Z,998.44
2016-10-22T09:47:59.942Z,998.48
2016-10-22T09:49:09.941Z,998.49
2016-10-22T09:50:20.224Z,998.49
2016-10-22T09:51:30.516Z,998.45
2016-10-22T09:52:40.494Z,998.45
2016-10-22T09:53:50.503Z,998.48
2016-10-22T09:55:00.805Z,998.46
2016-10-22T09:56:11.081Z,998.49
2016-10-22T09:57:21.095Z,998.5
2016-10-22T09:58:31.406Z,998.49
2016-10-22T09:59:41.386Z,998.51
2016-10-22T10:00:51.809Z,998.51
2016-10-22T10:02:02.108Z,998.51
2016-10-22T10:03:12.392Z,998.47
2016-10-22T10:04:22.689Z,998.5
2016-10-22T10:05:32.908Z,998.46
2016-10-22T10:06:43.193Z,998.5
2016-10-22T10:07:53.885Z,998.52
2016-10-22T10:09:03.862Z,998.5
2016-10-22T10:10:14.149Z,998.52
2016-10-22T10:11:24.431Z,998.51
2016-10-22T10:12:34.765Z,998.52
2016-10-22T10:13:45.051Z,998.47
2016-10-22T10:14:55.345Z,998.53
2016-10-22T10:16:05.321Z,998.47
2016-10-22T10:17:15.595Z,998.45
2016-10-22T10:18:25.889Z,998.45
2016-10-22T10:19:35.870Z,998.46
2016-10-22T10:20:46.026Z,998.46
2016-10-22T10:21:56.324Z,998.48
2016-10-22T10:23:06.632Z,998.49
2016-10-22T10:24:16.951Z,998.5
2016-10-22T10:25:27.250Z,998.45
2016-10-22T10:26:37.540Z,998.48
2016-10-22T10:27:47.818Z,998.46
2016-10-22T10:28:58.114Z,998.47
2016-10-22T10:30:08.100Z,998.46
2016-10-22T10:31:18.392Z,998.45
2016-10-22T10:32:28.379Z,998.41
2016-10-22T10:33:38.666Z,998.41
2016-10-22T10:34:48.957Z,998.37
2016-10-22T10:35:58.946Z,998.37
2016-10-22T10:37:08.932Z,998.35
2016-10-22T10:38:19.212Z,998.33
2016-10-22T10:39:29.504Z,998.29
2016-10-22T10:40:39.795Z,998.32
2016-10-22T10:41:49.775Z,998.29
2016-10-22T10:43:00.061Z,998.31
2016-10-22T10:44:10.376Z,998.26
2016-10-22T10:45:20.364Z,998.26
2016-10-22T10:46:30.660Z,998.25
2016-10-22T10:47:40.961Z,998.27
2016-10-22T10:48:51.243Z,998.35
2016-10-22T10:50:01.228Z,998.32
2016-10-22T10:51:11.531Z,998.3
2016-10-22T10:52:21.506Z,998.27
2016-10-22T10:53:31.798Z,998.33
2016-10-22T10:54:41.786Z,998.29
2016-10-22T10:55:52.137Z,998.31
2016-10-22T10:57:02.415Z,998.3
2016-10-22T10:58:12.691Z,998.29
2016-10-22T10:59:22.969Z,998.24
2016-10-22T11:00:32.962Z,998.27
2016-10-22T11:01:43.258Z,998.28
2016-10-22T11:02:53.593Z,998.23
2016-10-22T11:04:03.619Z,998.25
2016-10-22T11:05:13.921Z,998.21
2016-10-22T11:06:24.228Z,998.18
2016-10-22T11:07:34.539Z,998.16
2016-10-22T11:08:44.833Z,998.17
2016-10-22T11:09:55.115Z,998.1
2016-10-22T11:11:05.411Z,998.09
2016-10-22T11:12:15.700Z,998.13
2016-10-22T11:13:25.999Z,998.09
2016-10-22T11:14:35.969Z,998.09
2016-10-22T11:15:45.952Z,998.08
2016-10-22T11:16:56.239Z,998.07
2016-10-22T11:18:06.230Z,998.03
2016-10-22T11:19:15.911Z,998.05
2016-10-22T11:20:26.193Z,998.02
2016-10-22T11:21:36.494Z,998.02
2016-10-22T11:22:46.821Z,998.05
2016-10-22T11:23:56.828Z,997.98
2016-10-22T11:25:07.118Z,998
2016-10-22T11:26:17.091Z,997.98
2016-10-22T11:27:27.393Z,997.99
2016-10-22T11:28:37.380Z,997.98
2016-10-22T11:29:47.677Z,997.97
2016-10-22T11:30:57.959Z,997.98
2016-10-22T11:32:08.286Z,997.97
2016-10-22T11:33:18.332Z,997.97
2016-10-22T11:34:28.672Z,997.93
2016-10-22T11:35:38.961Z,997.93
2016-10-22T11:36:49.268Z,997.87
2016-10-22T11:37:59.569Z,997.9
2016-10-22T11:39:09.889Z,997.88
2016-10-22T11:40:20.178Z,997.86
2016-10-22T11:41:30.174Z,997.84
2016-10-22T11:42:40.147Z,997.76
2016-10-22T11:43:50.127Z,997.82
2016-10-22T11:45:00.415Z,997.85
2016-10-22T11:46:10.083Z,997.81
2016-10-22T11:47:20.397Z,997.81
2016-10-22T11:48:30.674Z,997.8
2016-10-22T11:49:40.668Z,997.82
2016-10-22T11:50:50.985Z,997.81
2016-10-22T11:52:01.270Z,997.85
2016-10-22T11:53:11.512Z,997.84
2016-10-22T11:54:21.797Z,997.84
2016-10-22T11:55:32.089Z,997.81
2016-10-22T11:56:42.383Z,997.79
2016-10-22T11:57:52.680Z,997.8
2016-10-22T11:59:02.666Z,997.79
2016-10-22T12:00:13.201Z,997.78
2016-10-22T12:01:23.503Z,997.77
2016-10-22T12:02:33.801Z,997.73
2016-10-22T12:03:44.117Z,997.81
2016-10-22T12:04:54.418Z,997.75
2016-10-22T12:06:04.720Z,997.72
2016-10-22T12:07:15.016Z,997.7
2016-10-22T12:08:25.324Z,997.7
2016-10-22T12:09:35.621Z,997.74
2016-10-22T12:10:45.909Z,997.73
2016-10-22T12:11:55.923Z,997.76
2016-10-22T12:13:06.224Z,997.77
2016-10-22T12:14:16.512Z,997.74
2016-10-22T12:15:26.817Z,997.72
2016-10-22T12:16:37.117Z,997.73
2016-10-22T12:17:47.409Z,997.71
2016-10-22T12:18:57.687Z,997.7
2016-10-22T12:20:07.715Z,997.76
2016-10-22T12:21:17.700Z,997.75
2016-10-22T12:22:27.997Z,997.74
2016-10-22T12:23:38.293Z,997.74
2016-10-22T12:24:48.591Z,997.73
2016-10-22T12:25:58.898Z,997.7
2016-10-22T12:27:09.188Z,997.69
2016-10-22T12:28:19.476Z,997.67
2016-10-22T12:29:29.772Z,997.7
2016-10-22T12:30:40.064Z,997.66
2016-10-22T12:31:50.372Z,997.71
2016-10-22T12:33:00.662Z,997.7
2016-10-22T12:34:10.939Z,997.68
2016-10-22T12:35:20.932Z,997.64
2016-10-22T12:36:30.918Z,997.67
2016-10-22T12:37:41.221Z,997.61
2016-10-22T12:38:51.521Z,997.63
2016-10-22T12:40:01.822Z,997.6
2016-10-22T12:41:11.800Z,997.59
2016-10-22T12:42:22.099Z,997.63
2016-10-22T12:43:31.812Z,997.6
2016-10-22T12:44:42.107Z,997.62
2016-10-22T12:45:52.391Z,997.6
2016-10-22T12:47:02.708Z,997.65
2016-10-22T12:48:13.011Z,997.6
2016-10-22T12:49:23.331Z,997.58
2016-10-22T12:50:33.617Z,997.6
2016-10-22T12:51:43.913Z,997.51
2016-10-22T12:52:54.198Z,997.52
2016-10-22T12:54:04.293Z,997.52
2016-10-22T12:55:14.660Z,997.55
2016-10-22T12:56:25.189Z,997.51
2016-10-22T12:57:35.497Z,997.5
2016-10-22T12:58:45.796Z,997.51
2016-10-22T12:59:56.076Z,997.44
2016-10-22T13:01:06.062Z,997.47
2016-10-22T13:02:16.374Z,997.41
2016-10-22T13:03:26.696Z,997.37
2016-10-22T13:04:36.689Z,997.38
2016-10-22T13:05:46.696Z,997.33
2016-10-22T13:06:56.691Z,997.37
2016-10-22T13:08:06.992Z,997.39
2016-10-22T13:09:17.287Z,997.4
2016-10-22T13:10:27.581Z,997.32
2016-10-22T13:11:37.572Z,997.35
2016-10-22T13:12:47.554Z,997.38
2016-10-22T13:13:57.871Z,997.35
2016-10-22T13:15:07.873Z,997.32
2016-10-22T13:16:18.149Z,997.34
2016-10-22T13:17:28.462Z,997.32
2016-10-22T13:18:38.772Z,997.34
2016-10-22T13:19:49.060Z,997.31
2016-10-22T13:20:59.085Z,997.37
2016-10-22T13:22:08.763Z,997.34
2016-10-22T13:23:19.065Z,997.35
2016-10-22T13:24:29.352Z,997.32
2016-10-22T13:25:39.344Z,997.29
2016-10-22T13:26:49.338Z,997.28
2016-10-22T13:27:59.619Z,997.26
2016-10-22T13:29:09.931Z,997.28
2016-10-22T13:30:20.225Z,997.26
2016-10-22T13:31:30.241Z,997.22
2016-10-22T13:32:40.223Z,997.2
2016-10-22T13:33:50.221Z,997.18
2016-10-22T13:35:00.232Z,997.21
2016-10-22T13:36:10.527Z,997.17
2016-10-22T13:37:20.806Z,997.17
2016-10-22T13:38:31.100Z,997.15
2016-10-22T13:39:41.113Z,997.13
2016-10-22T13:40:51.421Z,997.18
2016-10-22T13:42:01.727Z,997.14
2016-10-22T13:43:12.028Z,997.15
2016-10-22T13:44:22.320Z,997.14
2016-10-22T13:45:32.616Z,997.13
2016-10-22T13:46:42.909Z,997.14
2016-10-22T13:47:53.185Z,997.12
2016-10-22T13:49:03.175Z,997.06
2016-10-22T13:50:13.466Z,997.07
2016-10-22T13:51:23.776Z,997.09
2016-10-22T13:52:33.757Z,997.05
2016-10-22T13:53:44.059Z,997.07
2016-10-22T13:54:54.380Z,997.11
2016-10-22T13:56:04.372Z,997.09
2016-10-22T13:57:14.673Z,997.15
2016-10-22T13:58:24.969Z,997.13
2016-10-22T13:59:34.946Z,997.12
2016-10-22T14:00:44.944Z,997.11
2016-10-22T14:01:55.216Z,997.1
2016-10-22T14:03:05.516Z,997.09
2016-10-22T14:04:15.793Z,997.08
2016-10-22T14:05:25.469Z,997.06
2016-10-22T14:06:35.761Z,997.08
2016-10-22T14:07:45.754Z,997.07
2016-10-22T14:08:56.079Z,997.1
2016-10-22T14:10:06.395Z,997.14
2016-10-22T14:11:16.717Z,997.12
2016-10-22T14:12:26.704Z,997.16
2016-10-22T14:13:36.997Z,997.13
2016-10-22T14:14:46.973Z,997.13
2016-10-22T14:15:57.255Z,997.11
2016-10-22T14:17:07.786Z,997.13
2016-10-22T14:18:18.093Z,997.11
2016-10-22T14:19:28.409Z,997.07
2016-10-22T14:20:38.712Z,997.07
2016-10-22T14:21:49.061Z,997.05
2016-10-22T14:23:00.277Z,997.11
2016-10-22T14:24:10.583Z,997.04
2016-10-22T14:25:21.055Z,997.08
2016-10-22T14:26:32.068Z,997.07
2016-10-22T14:27:42.374Z,997.06
2016-10-22T14:28:52.671Z,997.04
2016-10-22T14:30:02.992Z,997.04
2016-10-22T14:31:13.308Z,997.01
2016-10-22T14:32:23.613Z,997.01
2016-10-22T14:33:33.614Z,996.97
2016-10-22T14:34:43.929Z,996.96
2016-10-22T14:35:54.210Z,997.01
2016-10-22T14:37:04.774Z,997.02
2016-10-22T14:38:16.835Z,996.95
2016-10-22T14:39:26.832Z,996.92
2016-10-22T14:40:37.152Z,996.96
2016-10-22T14:41:47.462Z,996.96
2016-10-22T14:42:57.774Z,996.97
2016-10-22T14:44:08.059Z,996.99
2016-10-22T14:45:18.057Z,996.96
2016-10-22T14:46:28.030Z,996.96
2016-10-22T14:47:38.038Z,996.91
2016-10-22T14:48:48.000Z,996.93
2016-10-22T14:49:58.285Z,996.91
2016-10-22T14:51:08.581Z,996.9
2016-10-22T14:52:18.868Z,996.9
2016-10-22T14:53:28.554Z,996.9
2016-10-22T14:54:38.837Z,996.88
2016-10-22T14:55:48.505Z,996.88
2016-10-22T14:56:58.794Z,996.88
2016-10-22T14:58:09.082Z,996.87
2016-10-22T14:59:19.419Z,996.91
2016-10-22T15:00:29.097Z,996.89
2016-10-22T15:01:39.149Z,996.88
2016-10-22T15:02:49.133Z,996.85
2016-10-22T15:03:59.527Z,996.83
2016-10-22T15:05:09.868Z,996.77
2016-10-22T15:06:20.156Z,996.8
2016-10-22T15:07:30.459Z,996.81
2016-10-22T15:08:40.745Z,996.77
2016-10-22T15:09:51.034Z,996.86